Time;durP1;ratioP1;P1;durP2;ratioP2;P2;SDS_P1;SDS_P2;PMS_P1;PMS_P2;Temp;Humidity;BMP_temperature;BMP_pressure;BME280_temperature;BME280_humidity;BME280_pressure;Samples;Min_cycle;Max_cycle;Signal;HPM_P1;HPM_P2
2024/01/26 00:01:18;;;;;;;31.15;17.23;;;8.70;99.90;;;;;;5052300;28;20654;-56
2024/01/26 00:03:46;;;;;;;23.90;16.60;;;8.70;99.90;;;;;;5067927;28;20208;-56
2024/01/26 00:06:16;;;;;;;24.58;16.88;;;8.70;99.90;;;;;;5061706;28;20209;-56
2024/01/26 00:08:44;;;;;;;26.83;17.40;;;8.70;99.90;;;;;;5067361;28;20212;-56
2024/01/26 00:11:15;;;;;;;28.20;17.05;;;8.70;99.90;;;;;;5067029;28;20284;-56
2024/01/26 00:13:42;;;;;;;27.25;16.60;;;8.70;99.90;;;;;;5066872;28;20241;-60
2024/01/26 00:16:10;;;;;;;31.20;18.00;;;8.70;99.90;;;;;;5055409;28;20206;-60
2024/01/26 00:18:39;;;;;;;31.27;18.10;;;8.60;99.90;;;;;;5074174;28;20229;-60
2024/01/26 00:21:08;;;;;;;26.38;16.33;;;8.60;99.90;;;;;;5055593;28;20202;-60
2024/01/26 00:23:37;;;;;;;31.17;17.13;;;8.60;99.90;;;;;;5053437;28;20332;-59
2024/01/26 00:26:05;;;;;;;25.38;15.82;;;8.60;99.90;;;;;;5062132;28;20604;-60
2024/01/26 00:28:33;;;;;;;28.05;16.75;;;8.60;99.90;;;;;;5068839;28;20255;-60
2024/01/26 00:31:00;;;;;;;27.10;16.92;;;8.60;99.90;;;;;;5053255;28;20265;-60
2024/01/26 00:33:28;;;;;;;28.33;17.77;;;8.60;99.90;;;;;;5052171;28;20217;-57
2024/01/26 00:35:56;;;;;;;25.05;16.23;;;8.60;99.90;;;;;;5057435;28;20267;-52
2024/01/26 00:38:24;;;;;;;28.52;16.55;;;8.60;99.90;;;;;;5060095;28;20240;-54
2024/01/26 00:40:53;;;;;;;28.55;17.55;;;8.60;99.90;;;;;;5069042;28;20670;-55
2024/01/26 00:43:21;;;;;;;27.45;16.77;;;8.60;99.90;;;;;;5068970;28;20654;-53
2024/01/26 00:45:49;;;;;;;24.27;17.08;;;8.60;99.90;;;;;;5051131;28;20257;-60
2024/01/26 00:48:17;;;;;;;23.35;15.50;;;8.60;99.90;;;;;;5060938;28;20630;-52
2024/01/26 00:50:46;;;;;;;26.77;16.48;;;8.60;99.90;;;;;;5070153;28;20249;-52
2024/01/26 00:53:13;;;;;;;23.38;15.25;;;8.60;99.90;;;;;;5069946;28;20205;-52
2024/01/26 00:55:41;;;;;;;20.05;14.98;;;8.60;99.90;;;;;;5051648;28;20261;-52
2024/01/26 00:58:11;;;;;;;23.85;15.38;;;8.70;99.90;;;;;;5051953;28;20242;-53
2024/01/26 01:00:39;;;;;;;24.65;14.85;;;8.70;99.90;;;;;;5051838;28;20257;-54
2024/01/26 01:03:08;;;;;;;21.17;15.50;;;8.70;99.90;;;;;;5068057;28;20209;-52
2024/01/26 01:05:36;;;;;;;21.95;15.05;;;8.60;99.90;;;;;;5051357;28;20224;-52
2024/01/26 01:08:05;;;;;;;21.80;15.25;;;8.70;99.90;;;;;;5051939;28;20206;-53
2024/01/26 01:10:32;;;;;;;22.83;15.10;;;8.70;99.90;;;;;;5051677;28;20225;-56
2024/01/26 01:13:04;;;;;;;24.45;15.85;;;8.60;99.90;;;;;;5051572;28;20202;-57
2024/01/26 01:15:34;;;;;;;24.17;14.80;;;8.60;99.90;;;;;;5051349;28;20703;-53
2024/01/26 01:18:02;;;;;;;22.52;15.15;;;8.60;99.90;;;;;;5051344;28;20217;-55
2024/01/26 01:20:30;;;;;;;27.23;15.98;;;8.60;99.90;;;;;;5051070;28;20640;-52
2024/01/26 01:22:59;;;;;;;24.67;16.27;;;8.60;99.90;;;;;;5051375;28;20213;-52
2024/01/26 01:25:26;;;;;;;21.75;14.88;;;8.60;99.90;;;;;;5054406;28;20570;-57
2024/01/26 01:27:54;;;;;;;23.08;14.35;;;8.60;99.90;;;;;;5070813;28;20288;-53
2024/01/26 01:30:22;;;;;;;21.52;14.52;;;8.60;99.90;;;;;;5060691;28;20337;-54
2024/01/26 01:32:51;;;;;;;26.63;14.50;;;8.60;99.90;;;;;;5064640;28;20197;-52
2024/01/26 01:35:19;;;;;;;21.02;14.80;;;8.60;99.90;;;;;;5067623;28;20232;-53
2024/01/26 01:37:47;;;;;;;19.90;13.93;;;8.60;99.90;;;;;;5058589;28;20225;-55
2024/01/26 01:40:15;;;;;;;22.05;14.15;;;8.60;99.90;;;;;;5056944;28;20307;-57
2024/01/26 01:42:43;;;;;;;21.95;13.82;;;8.60;99.90;;;;;;5061674;28;20219;-52
2024/01/26 01:45:13;;;;;;;22.45;13.68;;;8.60;99.90;;;;;;5069343;28;20283;-53
2024/01/26 01:47:41;;;;;;;22.08;14.45;;;8.60;99.90;;;;;;5051176;28;20650;-52
2024/01/26 01:50:10;;;;;;;23.50;14.85;;;8.50;99.90;;;;;;5070114;28;20274;-52
2024/01/26 01:52:41;;;;;;;21.52;14.25;;;8.50;99.90;;;;;;5050922;28;20205;-53
2024/01/26 01:55:10;;;;;;;23.05;15.05;;;8.50;99.90;;;;;;5050813;28;20287;-52
2024/01/26 01:57:39;;;;;;;23.67;15.50;;;8.50;99.90;;;;;;5051124;28;20232;-55
2024/01/26 02:00:15;;;;;;;20.77;14.63;;;8.50;99.90;;;;;;5063606;28;20197;-53
2024/01/26 02:02:46;;;;;;;19.63;14.88;;;8.60;99.90;;;;;;5069378;28;20206;-52
2024/01/26 02:05:16;;;;;;;21.77;14.90;;;8.50;99.90;;;;;;5054596;28;20683;-52
2024/01/26 02:07:48;;;;;;;27.63;17.30;;;8.50;99.90;;;;;;5054924;28;20205;-53
2024/01/26 02:10:16;;;;;;;26.85;16.85;;;8.50;99.90;;;;;;5054429;28;20225;-55
2024/01/26 02:12:44;;;;;;;23.55;16.30;;;8.50;99.90;;;;;;5054623;28;20221;-55
2024/01/26 02:15:11;;;;;;;22.42;15.65;;;8.50;99.90;;;;;;5054728;28;20268;-53
2024/01/26 02:17:39;;;;;;;26.02;17.17;;;8.60;99.90;;;;;;5054877;28;20244;-52
2024/01/26 02:20:09;;;;;;;22.77;15.15;;;8.50;99.90;;;;;;5071319;28;20216;-58
2024/01/26 02:22:38;;;;;;;24.45;16.95;;;8.50;99.90;;;;;;5061654;28;20682;-53
2024/01/26 02:25:08;;;;;;;28.75;18.00;;;8.60;99.90;;;;;;5054446;28;20233;-54
2024/01/26 02:27:36;;;;;;;28.00;17.15;;;8.60;99.90;;;;;;5054632;28;20292;-54
2024/01/26 02:30:05;;;;;;;24.92;16.13;;;8.60;99.90;;;;;;5054629;28;20391;-57
2024/01/26 02:32:33;;;;;;;26.30;16.27;;;8.50;99.90;;;;;;5046398;28;20198;-54
2024/01/26 02:35:01;;;;;;;25.10;16.83;;;8.50;99.90;;;;;;5054474;28;20608;-52
2024/01/26 02:37:29;;;;;;;30.20;17.45;;;8.60;99.90;;;;;;5056076;28;20197;-53
2024/01/26 02:39:57;;;;;;;27.98;17.20;;;8.60;99.90;;;;;;5067644;28;20260;-53
2024/01/26 02:42:26;;;;;;;32.40;19.23;;;8.60;99.90;;;;;;5073161;28;20213;-53
2024/01/26 02:44:54;;;;;;;26.48;17.48;;;8.60;99.90;;;;;;5059359;28;20307;-52
2024/01/26 02:47:22;;;;;;;34.92;19.35;;;8.60;99.90;;;;;;5064502;28;20283;-52
2024/01/26 02:49:50;;;;;;;28.80;17.98;;;8.60;99.90;;;;;;5068135;28;20234;-52
2024/01/26 02:52:20;;;;;;;30.35;19.38;;;8.60;99.90;;;;;;5051209;28;20226;-52
2024/01/26 02:54:48;;;;;;;31.92;18.65;;;8.60;99.90;;;;;;5054300;28;20267;-52
2024/01/26 02:57:16;;;;;;;32.28;18.75;;;8.60;99.90;;;;;;5053764;28;20249;-53
2024/01/26 02:59:45;;;;;;;33.38;20.48;;;8.60;99.90;;;;;;5053966;28;20592;-52
2024/01/26 03:02:13;;;;;;;27.95;18.10;;;8.60;99.90;;;;;;5056157;28;20258;-55
2024/01/26 03:04:41;;;;;;;32.70;18.40;;;8.60;99.90;;;;;;5066912;28;20221;-56
2024/01/26 03:07:09;;;;;;;31.88;18.88;;;8.60;99.90;;;;;;5072651;28;20205;-57
2024/01/26 03:09:37;;;;;;;26.98;18.05;;;8.60;99.90;;;;;;5068824;28;20212;-56
2024/01/26 03:12:05;;;;;;;35.22;18.42;;;8.60;99.90;;;;;;5053136;28;20268;-52
2024/01/26 03:14:34;;;;;;;30.00;18.42;;;8.70;99.90;;;;;;5057722;28;20225;-53
2024/01/26 03:17:04;;;;;;;34.90;21.15;;;8.60;99.90;;;;;;5057706;28;20210;-52
2024/01/26 03:19:35;;;;;;;33.17;20.75;;;8.70;99.90;;;;;;5053724;28;20233;-55
2024/01/26 03:22:03;;;;;;;37.00;22.10;;;8.70;99.90;;;;;;5053293;28;20206;-55
2024/01/26 03:24:30;;;;;;;38.05;21.23;;;8.70;99.90;;;;;;5053353;28;20695;-55
2024/01/26 03:26:58;;;;;;;32.50;20.50;;;8.60;99.90;;;;;;5054385;28;20206;-55
2024/01/26 03:29:26;;;;;;;30.33;19.42;;;8.70;99.90;;;;;;5072599;28;20201;-57
2024/01/26 03:31:54;;;;;;;37.53;21.15;;;8.60;99.90;;;;;;5058528;28;20218;-55
2024/01/26 03:34:24;;;;;;;31.35;19.27;;;8.60;99.90;;;;;;5053424;28;20644;-55
2024/01/26 03:36:52;;;;;;;29.42;18.58;;;8.70;99.90;;;;;;5053076;28;20639;-55
2024/01/26 03:39:20;;;;;;;30.38;19.67;;;8.60;99.90;;;;;;5053411;28;20255;-55
2024/01/26 03:41:49;;;;;;;31.60;18.83;;;8.60;99.90;;;;;;5052959;28;20285;-57
2024/01/26 03:44:17;;;;;;;38.90;20.95;;;8.70;99.90;;;;;;5052911;28;20742;-55
2024/01/26 03:46:45;;;;;;;35.38;20.10;;;8.60;99.90;;;;;;5052965;28;20260;-55
2024/01/26 03:49:12;;;;;;;40.72;21.90;;;8.60;99.90;;;;;;5053187;28;20297;-56
2024/01/26 03:51:42;;;;;;;38.85;22.08;;;8.60;99.90;;;;;;5052406;28;20253;-56
2024/01/26 03:54:09;;;;;;;34.30;20.67;;;8.70;99.90;;;;;;5052977;28;20746;-55
2024/01/26 03:56:38;;;;;;;39.22;22.20;;;8.70;99.90;;;;;;5044738;28;20241;-56
2024/01/26 03:59:05;;;;;;;39.17;21.90;;;8.60;99.90;;;;;;5052943;28;20205;-55
2024/01/26 04:01:33;;;;;;;40.17;21.15;;;8.70;99.90;;;;;;5052424;28;20288;-55
2024/01/26 04:04:01;;;;;;;36.80;21.58;;;8.70;99.90;;;;;;5052588;28;20233;-55
2024/01/26 04:06:38;;;;;;;34.88;20.40;;;8.70;99.90;;;;;;5052450;28;20679;-57
2024/01/26 04:09:07;;;;;;;35.17;20.48;;;8.70;99.90;;;;;;5052889;28;20366;-55
2024/01/26 04:11:35;;;;;;;34.53;20.55;;;8.70;99.90;;;;;;5051979;28;20711;-55
2024/01/26 04:14:04;;;;;;;31.33;19.15;;;8.70;99.90;;;;;;5052529;28;20235;-55
2024/01/26 04:16:32;;;;;;;37.50;21.20;;;8.70;99.90;;;;;;5052150;28;20309;-55
2024/01/26 04:18:59;;;;;;;36.97;20.05;;;8.70;99.90;;;;;;5052754;28;20212;-55
2024/01/26 04:21:28;;;;;;;30.58;18.67;;;8.70;99.90;;;;;;5051441;28;20678;-55
2024/01/26 04:23:55;;;;;;;34.05;19.55;;;8.70;99.90;;;;;;5052459;28;20237;-56
2024/01/26 04:26:25;;;;;;;34.15;20.52;;;8.70;99.90;;;;;;5052226;28;20300;-57
2024/01/26 04:28:53;;;;;;;33.85;19.90;;;8.70;99.90;;;;;;5052187;28;20212;-55
2024/01/26 04:31:22;;;;;;;34.90;20.30;;;8.70;99.90;;;;;;5049632;28;21012;-55
2024/01/26 04:33:50;;;;;;;34.13;19.60;;;8.70;99.90;;;;;;5064029;28;20201;-55
2024/01/26 04:36:18;;;;;;;31.05;18.67;;;8.70;99.90;;;;;;5070400;28;20232;-55
2024/01/26 04:38:46;;;;;;;32.10;19.48;;;8.70;99.90;;;;;;5067568;28;20206;-55
2024/01/26 04:41:14;;;;;;;31.73;18.60;;;8.70;99.90;;;;;;5051611;28;20679;-55
2024/01/26 04:43:43;;;;;;;30.63;18.73;;;8.70;99.90;;;;;;5071572;28;20198;-55
2024/01/26 04:46:11;;;;;;;34.97;20.00;;;8.70;99.90;;;;;;5055611;28;20234;-57
2024/01/26 04:48:39;;;;;;;34.08;19.95;;;8.70;99.90;;;;;;5052098;28;20237;-55
2024/01/26 04:51:07;;;;;;;32.58;19.10;;;8.70;99.90;;;;;;5051650;28;20790;-55
2024/01/26 04:53:35;;;;;;;30.88;19.15;;;8.70;99.90;;;;;;5051453;28;20222;-55
2024/01/26 04:56:04;;;;;;;32.65;19.73;;;8.70;99.90;;;;;;5051476;28;20228;-56
2024/01/26 04:58:32;;;;;;;32.50;18.38;;;8.70;99.90;;;;;;5051775;28;20210;-57
2024/01/26 05:01:01;;;;;;;29.83;18.52;;;8.70;99.90;;;;;;5057581;28;20254;-55
2024/01/26 05:03:29;;;;;;;28.52;17.55;;;8.80;99.90;;;;;;5069371;28;20265;-54
2024/01/26 05:05:57;;;;;;;28.00;17.75;;;8.80;99.90;;;;;;5051272;28;20312;-55
2024/01/26 05:08:25;;;;;;;25.70;16.77;;;8.80;99.90;;;;;;5051590;28;20578;-54
2024/01/26 05:10:53;;;;;;;27.80;17.50;;;8.70;99.90;;;;;;5051357;28;20288;-56
2024/01/26 05:13:21;;;;;;;30.40;17.45;;;8.80;99.90;;;;;;5051352;28;20232;-55
2024/01/26 05:15:48;;;;;;;26.27;16.17;;;8.70;99.90;;;;;;5051382;28;20322;-55
2024/01/26 05:18:17;;;;;;;27.15;15.90;;;8.70;99.90;;;;;;5051460;28;20632;-55
2024/01/26 05:20:46;;;;;;;25.65;15.43;;;8.70;99.90;;;;;;5051254;28;20221;-56
2024/01/26 05:23:14;;;;;;;22.02;14.55;;;8.70;99.90;;;;;;5051118;28;20212;-54
2024/01/26 05:25:44;;;;;;;22.92;14.70;;;8.70;99.90;;;;;;5051264;28;20225;-55
2024/01/26 05:28:12;;;;;;;24.45;14.25;;;8.70;99.90;;;;;;5059184;28;20241;-55
2024/01/26 05:30:40;;;;;;;21.35;14.02;;;8.80;99.90;;;;;;5067546;28;20210;-56
2024/01/26 05:33:09;;;;;;;21.13;13.23;;;8.80;99.90;;;;;;5049243;28;20225;-56
2024/01/26 05:35:38;;;;;;;21.55;13.63;;;8.80;99.90;;;;;;5070093;28;20650;-56
2024/01/26 05:38:06;;;;;;;15.55;10.85;;;8.80;99.90;;;;;;5056298;28;20206;-56
2024/01/26 05:40:34;;;;;;;14.18;11.10;;;8.80;99.90;;;;;;5050801;28;20303;-55
2024/01/26 05:43:02;;;;;;;15.07;11.02;;;8.80;99.90;;;;;;5050623;28;20675;-55
2024/01/26 05:45:30;;;;;;;18.77;11.45;;;8.80;99.90;;;;;;5072073;22;20233;-82
2024/01/26 05:47:58;;;;;;;15.18;11.82;;;8.80;99.90;;;;;;5052476;28;20234;-81
2024/01/26 05:50:26;;;;;;;15.50;9.85;;;8.80;99.90;;;;;;5051829;28;20582;-79
2024/01/26 05:52:55;;;;;;;13.23;9.75;;;8.80;99.90;;;;;;5052575;28;20222;-81
2024/01/26 05:55:23;;;;;;;11.50;9.65;;;8.80;99.90;;;;;;5055047;28;20282;-81
2024/01/26 05:57:51;;;;;;;15.05;9.63;;;8.80;99.90;;;;;;5057335;28;20252;-81
2024/01/26 06:00:19;;;;;;;12.38;8.98;;;8.90;99.90;;;;;;5063754;28;20647;-80
2024/01/26 06:02:47;;;;;;;11.05;9.30;;;8.80;99.90;;;;;;5049682;28;20252;-81
2024/01/26 06:05:16;;;;;;;14.10;9.00;;;8.90;99.90;;;;;;5051784;28;20237;-81
2024/01/26 06:07:43;;;;;;;9.30;8.05;;;8.80;99.90;;;;;;5063414;22;20655;-60
2024/01/26 06:10:13;;;;;;;12.18;7.93;;;8.90;99.90;;;;;;5031299;28;20214;-59
2024/01/26 06:12:41;;;;;;;10.32;6.75;;;8.80;99.90;;;;;;5030464;28;20741;-60
2024/01/26 06:15:10;;;;;;;9.10;7.00;;;8.90;99.90;;;;;;5030909;28;20320;-60
2024/01/26 06:17:38;;;;;;;8.35;6.57;;;8.90;99.90;;;;;;5030756;28;20302;-60
2024/01/26 06:20:07;;;;;;;7.65;6.38;;;8.90;99.90;;;;;;5031360;28;20211;-60
2024/01/26 06:22:35;;;;;;;8.05;6.50;;;8.90;99.90;;;;;;5030405;28;20217;-61
2024/01/26 06:25:04;;;;;;;7.38;5.95;;;8.90;99.90;;;;;;5048558;28;20230;-60
2024/01/26 06:27:33;;;;;;;7.85;6.30;;;8.90;99.90;;;;;;5050290;28;20228;-61
2024/01/26 06:30:01;;;;;;;7.32;5.78;;;8.90;99.90;;;;;;5050115;28;20302;-61
2024/01/26 06:32:29;;;;;;;7.93;5.63;;;8.90;99.90;;;;;;5049631;28;20210;-62
2024/01/26 06:34:57;;;;;;;5.75;5.13;;;8.90;99.90;;;;;;5050693;28;20600;-61
2024/01/26 06:37:26;;;;;;;5.82;5.00;;;8.90;99.90;;;;;;5050000;28;20728;-61
2024/01/26 06:39:55;;;;;;;8.73;5.75;;;8.90;99.90;;;;;;5063393;28;20587;-62
2024/01/26 06:42:25;;;;;;;5.32;4.70;;;8.80;99.90;;;;;;5061158;28;20210;-61
2024/01/26 06:44:54;;;;;;;5.20;4.70;;;8.80;99.90;;;;;;5068240;28;20306;-62
2024/01/26 06:47:22;;;;;;;6.18;4.40;;;8.80;99.90;;;;;;5061851;28;20198;-61
2024/01/26 06:49:50;;;;;;;5.07;4.65;;;8.80;99.90;;;;;;5050284;28;20575;-62
2024/01/26 06:52:18;;;;;;;4.25;3.85;;;8.80;99.90;;;;;;5054933;28;20212;-60
2024/01/26 06:54:46;;;;;;;4.18;3.72;;;8.80;99.90;;;;;;5065403;28;20294;-60
2024/01/26 06:57:14;;;;;;;4.55;4.13;;;8.80;99.90;;;;;;5059695;28;20238;-61
2024/01/26 06:59:42;;;;;;;5.53;3.65;;;8.80;99.90;;;;;;5034321;28;20211;-62
2024/01/26 07:02:11;;;;;;;4.25;3.85;;;8.70;99.90;;;;;;5033796;28;20218;-62
2024/01/26 07:04:39;;;;;;;5.38;3.50;;;8.70;99.90;;;;;;5036329;28;20357;-62
2024/01/26 07:07:07;;;;;;;5.85;4.30;;;8.70;99.90;;;;;;5053800;28;20304;-62
2024/01/26 07:09:35;;;;;;;4.53;3.88;;;8.60;99.90;;;;;;5053753;28;20205;-61
2024/01/26 07:12:03;;;;;;;4.47;3.75;;;8.60;99.90;;;;;;5048136;28;20203;-62
2024/01/26 07:14:31;;;;;;;5.85;3.70;;;8.60;99.90;;;;;;5033870;28;20237;-62
2024/01/26 07:16:59;;;;;;;4.45;3.45;;;8.60;99.90;;;;;;5033779;28;20249;-63
2024/01/26 07:19:28;;;;;;;4.45;3.22;;;8.60;99.90;;;;;;5051047;28;20214;-63
2024/01/26 07:21:56;;;;;;;4.05;3.53;;;8.60;99.90;;;;;;5053211;28;20205;-62
2024/01/26 07:24:24;;;;;;;3.55;3.25;;;8.60;99.90;;;;;;5053794;28;20256;-62
2024/01/26 07:26:53;;;;;;;5.28;3.50;;;8.70;99.90;;;;;;5053602;28;20198;-62
2024/01/26 07:29:21;;;;;;;3.60;3.30;;;8.60;99.90;;;;;;5053704;28;20205;-61
2024/01/26 07:31:49;;;;;;;5.60;3.35;;;8.70;99.90;;;;;;5045001;28;20717;-60
2024/01/26 07:34:17;;;;;;;3.20;2.90;;;8.70;99.90;;;;;;5053306;28;20268;-61
2024/01/26 07:36:47;;;;;;;4.03;3.20;;;8.70;99.90;;;;;;5053068;28;20202;-62
2024/01/26 07:39:15;;;;;;;5.10;3.28;;;8.70;99.90;;;;;;5053616;28;20625;-62
2024/01/26 07:41:43;;;;;;;3.65;3.00;;;8.70;99.90;;;;;;5053009;28;20216;-61
2024/01/26 07:44:11;;;;;;;4.95;3.25;;;8.70;99.90;;;;;;5053483;28;20210;-63
2024/01/26 07:46:41;;;;;;;5.00;3.28;;;8.70;99.90;;;;;;5052914;28;20668;-62
2024/01/26 07:49:09;;;;;;;3.95;3.10;;;8.70;99.90;;;;;;5053234;28;20596;-62
2024/01/26 07:51:37;;;;;;;6.55;3.75;;;8.70;99.90;;;;;;5052702;28;20202;-61
2024/01/26 07:54:07;;;;;;;6.22;3.92;;;8.70;99.90;;;;;;5053166;28;20232;-61
2024/01/26 07:56:35;;;;;;;4.65;3.45;;;8.70;99.90;;;;;;5051008;28;20225;-62
2024/01/26 07:59:03;;;;;;;4.65;4.03;;;8.80;99.90;;;;;;5033161;28;20213;-62
2024/01/26 08:01:31;;;;;;;8.48;4.18;;;8.90;99.90;;;;;;5032479;28;20216;-63
2024/01/26 08:04:00;;;;;;;4.32;3.95;;;8.90;99.90;;;;;;5033295;28;20644;-62
2024/01/26 08:06:29;;;;;;;8.73;4.22;;;8.90;99.90;;;;;;5032750;28;20277;-63
2024/01/26 08:08:57;;;;;;;4.53;4.13;;;9.00;99.90;;;;;;5032849;28;20213;-62
2024/01/26 08:11:27;;;;;;;5.72;4.45;;;9.00;99.90;;;;;;5032432;28;20214;-60
2024/01/26 08:13:55;;;;;;;7.65;3.70;;;9.00;99.90;;;;;;5032468;28;20284;-62
2024/01/26 08:16:22;;;;;;;4.85;4.38;;;9.00;99.90;;;;;;5032599;28;20226;-62
2024/01/26 08:18:50;;;;;;;7.88;4.93;;;9.10;99.90;;;;;;5043792;28;20659;-62
2024/01/26 08:21:19;;;;;;;5.90;4.78;;;9.10;99.90;;;;;;5052467;28;20563;-62
2024/01/26 08:23:48;;;;;;;7.50;5.10;;;9.20;99.90;;;;;;5052361;28;20198;-62
2024/01/26 08:26:16;;;;;;;5.80;5.30;;;9.20;99.90;;;;;;5045540;28;20230;-62
2024/01/26 08:28:45;;;;;;;5.45;5.05;;;9.20;99.90;;;;;;5032422;28;20214;-62
2024/01/26 08:31:13;;;;;;;6.07;5.47;;;9.20;99.90;;;;;;5032411;28;20202;-61
2024/01/26 08:33:41;;;;;;;5.97;5.00;;;9.20;99.90;;;;;;5032513;28;20240;-62
2024/01/26 08:36:10;;;;;;;7.05;5.30;;;9.20;99.90;;;;;;5032306;28;20233;-62
2024/01/26 08:38:38;;;;;;;5.80;5.28;;;9.30;99.90;;;;;;5032316;28;20664;-63
2024/01/26 08:41:07;;;;;;;5.88;5.25;;;9.30;99.90;;;;;;5032305;28;20206;-62
2024/01/26 08:43:35;;;;;;;7.30;5.55;;;9.30;99.90;;;;;;5032131;28;20260;-62
2024/01/26 08:46:05;;;;;;;6.13;5.63;;;9.30;99.90;;;;;;5031875;28;20692;-62
2024/01/26 08:48:32;;;;;;;6.50;5.72;;;9.30;99.90;;;;;;5032079;28;20683;-61
2024/01/26 08:51:00;;;;;;;6.28;5.63;;;9.30;99.90;;;;;;5032092;28;20210;-61
2024/01/26 08:53:28;;;;;;;8.45;5.85;;;9.30;99.90;;;;;;5031849;28;20211;-60
2024/01/26 08:55:56;;;;;;;8.18;5.85;;;9.30;99.90;;;;;;5031780;28;20715;-63
2024/01/26 08:58:24;;;;;;;6.07;5.50;;;9.30;99.90;;;;;;5032108;28;20673;-61
2024/01/26 09:00:52;;;;;;;8.82;6.00;;;9.30;99.90;;;;;;5031821;28;20554;-62
2024/01/26 09:03:21;;;;;;;6.75;6.05;;;9.30;99.90;;;;;;5031700;28;20719;-61
2024/01/26 09:05:49;;;;;;;11.00;6.15;;;9.30;99.90;;;;;;5031651;28;20225;-62
2024/01/26 09:08:18;;;;;;;6.88;5.63;;;9.30;99.90;;;;;;5030701;28;20210;-62
2024/01/26 09:10:45;;;;;;;8.60;5.70;;;9.40;99.90;;;;;;5031963;28;20274;-61
2024/01/26 09:13:13;;;;;;;8.57;5.60;;;9.30;99.90;;;;;;5031774;28;20206;-61
2024/01/26 09:15:41;;;;;;;7.65;5.63;;;9.40;99.90;;;;;;5031647;28;20704;-61
2024/01/26 09:18:09;;;;;;;6.85;5.43;;;9.40;99.90;;;;;;5031396;28;20207;-61
2024/01/26 09:20:39;;;;;;;6.20;5.28;;;9.40;99.90;;;;;;5031532;28;20211;-61
2024/01/26 09:23:07;;;;;;;5.80;5.20;;;9.40;99.90;;;;;;5043016;28;20206;-62
2024/01/26 09:25:35;;;;;;;7.25;5.57;;;9.40;99.90;;;;;;5068534;28;20709;-62
2024/01/26 09:28:03;;;;;;;5.57;5.10;;;9.40;99.90;;;;;;5045539;28;20261;-62
2024/01/26 09:30:30;;;;;;;5.30;4.72;;;9.40;99.90;;;;;;5031367;28;20298;-61
2024/01/26 09:32:58;;;;;;;5.20;4.38;;;9.50;99.90;;;;;;5030643;28;20212;-62
2024/01/26 09:35:27;;;;;;;5.03;4.63;;;9.50;99.90;;;;;;5030877;28;20231;-62
2024/01/26 09:37:56;;;;;;;4.35;4.05;;;9.50;99.90;;;;;;5031065;28;20214;-62
2024/01/26 09:40:24;;;;;;;8.23;4.47;;;9.50;99.90;;;;;;5031285;28;20309;-61
2024/01/26 09:42:52;;;;;;;6.20;4.43;;;9.50;99.90;;;;;;5030302;28;20695;-61
2024/01/26 09:45:22;;;;;;;4.80;3.88;;;9.50;99.90;;;;;;5030980;28;20305;-62
2024/01/26 09:47:51;;;;;;;3.22;3.03;;;9.60;99.90;;;;;;5030778;28;20241;-60
2024/01/26 09:50:20;;;;;;;3.35;3.15;;;9.60;99.90;;;;;;5031437;28;20207;-62
2024/01/26 09:52:48;;;;;;;6.07;2.83;;;9.60;99.90;;;;;;5030232;28;20206;-62
2024/01/26 09:55:17;;;;;;;5.43;3.00;;;9.70;99.90;;;;;;5030999;28;20237;-62
2024/01/26 09:57:45;;;;;;;3.28;3.00;;;9.70;99.90;;;;;;5030853;28;20906;-62
2024/01/26 10:00:14;;;;;;;4.50;3.47;;;9.70;99.90;;;;;;5032055;28;20245;-62
2024/01/26 10:02:42;;;;;;;7.13;3.63;;;9.70;99.90;;;;;;5030360;28;20206;-61
2024/01/26 10:05:10;;;;;;;3.42;3.13;;;9.70;99.90;;;;;;5030989;28;20223;-63
2024/01/26 10:07:38;;;;;;;4.80;3.22;;;9.70;99.90;;;;;;5030549;28;20233;-62
2024/01/26 10:10:08;;;;;;;7.05;4.07;;;9.70;99.90;;;;;;5030939;28;20238;-63
2024/01/26 10:12:38;;;;;;;4.63;2.97;;;9.70;99.90;;;;;;5030180;28;20245;-63
2024/01/26 10:15:07;;;;;;;4.95;3.30;;;9.70;99.90;;;;;;5031111;28;20234;-63
2024/01/26 10:17:36;;;;;;;6.75;4.40;;;9.60;99.90;;;;;;5032803;28;20222;-62
2024/01/26 10:20:13;;;;;;;6.13;3.60;;;9.60;99.90;;;;;;5034718;28;20293;-63
2024/01/26 10:22:43;;;;;;;4.93;3.95;;;9.60;99.90;;;;;;5041336;28;20267;-63
2024/01/26 10:25:11;;;;;;;3.53;3.22;;;9.60;99.90;;;;;;5068647;28;20653;-62
2024/01/26 10:27:40;;;;;;;6.70;3.70;;;9.60;99.90;;;;;;5059931;28;20691;-62
2024/01/26 10:30:08;;;;;;;6.22;3.58;;;9.60;99.90;;;;;;5054442;28;20210;-63
2024/01/26 10:32:37;;;;;;;4.05;3.72;;;9.60;99.90;;;;;;5070209;28;20916;-62
2024/01/26 10:35:07;;;;;;;5.05;4.65;;;9.60;99.90;;;;;;5065509;28;20227;-62
2024/01/26 10:37:36;;;;;;;6.50;4.18;;;9.60;99.90;;;;;;5037074;28;20209;-61
2024/01/26 10:40:08;;;;;;;5.75;4.00;;;9.60;99.90;;;;;;5054458;28;20205;-60
2024/01/26 10:42:37;;;;;;;5.18;3.83;;;9.70;99.90;;;;;;5053633;28;20206;-61
2024/01/26 10:45:06;;;;;;;5.35;4.43;;;9.70;99.90;;;;;;5054090;28;20695;-61
2024/01/26 10:47:39;;;;;;;4.45;4.05;;;9.70;99.90;;;;;;5053956;28;20291;-61
2024/01/26 10:50:08;;;;;;;5.18;3.92;;;9.70;99.90;;;;;;5053985;28;20202;-60
2024/01/26 10:52:37;;;;;;;3.42;3.08;;;9.80;99.90;;;;;;5053095;28;20206;-61
2024/01/26 10:55:07;;;;;;;6.85;3.38;;;9.80;99.90;;;;;;5054421;28;20238;-60
2024/01/26 10:57:35;;;;;;;5.80;3.42;;;9.80;99.90;;;;;;5053122;28;20258;-59
2024/01/26 11:00:04;;;;;;;4.03;3.67;;;9.90;99.90;;;;;;5066751;28;20263;-61
2024/01/26 11:02:34;;;;;;;3.22;3.13;;;9.90;99.90;;;;;;5072904;28;20212;-62
2024/01/26 11:05:03;;;;;;;5.60;3.63;;;9.90;99.90;;;;;;5045995;28;20317;-61
2024/01/26 11:07:31;;;;;;;3.50;3.20;;;9.90;99.90;;;;;;5053806;28;20217;-61
2024/01/26 11:10:00;;;;;;;3.92;3.63;;;9.90;99.90;;;;;;5052086;28;20641;-59
2024/01/26 11:12:29;;;;;;;5.80;3.78;;;9.90;99.90;;;;;;5068646;28;20224;-61
2024/01/26 11:15:08;;;;;;;3.95;3.65;;;10.00;99.90;;;;;;5051053;28;20237;-61
2024/01/26 11:17:45;;;;;;;7.97;4.18;;;10.00;99.90;;;;;;5033598;28;20741;-62
2024/01/26 11:20:15;;;;;;;4.78;3.55;;;10.00;99.90;;;;;;5034080;28;20285;-62
2024/01/26 11:22:43;;;;;;;3.53;3.33;;;10.00;99.90;;;;;;5033508;28;20217;-62
2024/01/26 11:25:20;;;;;;;4.70;3.60;;;10.00;99.90;;;;;;5033722;28;20261;-62
2024/01/26 11:27:48;;;;;;;4.47;3.15;;;10.00;99.90;;;;;;5033400;28;20202;-61
2024/01/26 11:30:24;;;;;;;3.20;3.10;;;10.00;99.90;;;;;;5049569;28;20202;-61
2024/01/26 11:32:53;;;;;;;7.38;3.60;;;10.00;99.90;;;;;;5068468;28;20603;-60
2024/01/26 11:35:22;;;;;;;5.25;2.88;;;10.10;99.90;;;;;;5033400;28;20241;-62
2024/01/26 11:37:51;;;;;;;6.10;3.60;;;10.10;99.90;;;;;;5033115;28;20660;-62
2024/01/26 11:40:20;;;;;;;2.70;2.50;;;10.20;99.90;;;;;;5033405;28;20242;-62
2024/01/26 11:42:48;;;;;;;6.38;3.22;;;10.20;99.90;;;;;;5032936;28;20252;-62
2024/01/26 11:45:35;;;;;;;1.92;1.92;;;10.30;99.90;;;;;;5033295;28;20272;-58
2024/01/26 11:48:08;;;;;;;1.10;1.10;;;10.30;99.90;;;;;;5044960;28;20206;-59
2024/01/26 11:50:36;;;;;;;1.55;1.45;;;10.40;99.90;;;;;;5053042;28;20210;-59
2024/01/26 11:53:05;;;;;;;1.73;1.30;;;10.50;99.90;;;;;;5053060;28;20275;-58
2024/01/26 11:55:33;;;;;;;1.55;1.10;;;10.60;99.90;;;;;;5053054;28;20759;-61
2024/01/26 11:58:02;;;;;;;0.88;0.88;;;10.70;99.90;;;;;;5053052;28;20263;-58
2024/01/26 12:00:31;;;;;;;1.08;0.85;;;10.80;99.90;;;;;;5053259;28;20201;-61
2024/01/26 12:03:00;;;;;;;4.22;0.98;;;10.80;99.90;;;;;;5052569;28;20206;-59
2024/01/26 12:05:30;;;;;;;4.10;0.80;;;10.90;99.90;;;;;;5052662;28;20233;-59
2024/01/26 12:07:58;;;;;;;0.60;0.60;;;10.90;99.90;;;;;;5052455;28;20263;-60
2024/01/26 12:10:25;;;;;;;1.15;0.70;;;10.90;99.90;;;;;;5052684;28;20198;-59
2024/01/26 12:12:53;;;;;;;1.08;0.52;;;11.00;99.90;;;;;;5051906;28;20210;-60
2024/01/26 12:15:21;;;;;;;0.95;0.68;;;11.00;99.90;;;;;;5052155;28;20624;-60
2024/01/26 12:17:50;;;;;;;1.75;0.60;;;11.10;99.90;;;;;;5052371;28;20271;-60
2024/01/26 12:20:18;;;;;;;0.63;0.43;;;11.10;99.90;;;;;;5052952;28;20248;-60
2024/01/26 12:22:47;;;;;;;0.32;0.32;;;11.20;99.90;;;;;;5052320;28;20248;-59
2024/01/26 12:25:15;;;;;;;0.30;0.30;;;11.20;99.90;;;;;;5052573;28;20221;-58
2024/01/26 12:27:43;;;;;;;0.47;0.47;;;11.30;99.90;;;;;;5044191;28;20198;-59
2024/01/26 12:30:11;;;;;;;0.43;0.32;;;11.30;99.90;;;;;;5052431;28;20206;-59
2024/01/26 12:32:40;;;;;;;0.40;0.40;;;11.40;99.90;;;;;;5052020;28;20214;-59
2024/01/26 12:35:09;;;;;;;0.30;0.30;;;11.40;99.90;;;;;;5052431;28;20221;-60
2024/01/26 12:37:37;;;;;;;0.50;0.50;;;11.50;99.90;;;;;;5052102;28;20254;-58
2024/01/26 12:40:08;;;;;;;0.43;0.30;;;11.40;99.90;;;;;;5049446;28;20729;-60
2024/01/26 12:42:36;;;;;;;0.32;0.32;;;11.40;99.90;;;;;;5050017;28;20625;-61
2024/01/26 12:45:04;;;;;;;0.70;0.35;;;11.50;99.90;;;;;;5051904;28;20287;-61
2024/01/26 12:47:32;;;;;;;0.40;0.40;;;11.50;99.90;;;;;;5051998;28;20198;-59
2024/01/26 12:50:00;;;;;;;0.28;0.28;;;11.50;99.90;;;;;;5051515;28;20221;-58
2024/01/26 12:52:28;;;;;;;2.92;0.30;;;11.50;99.90;;;;;;5051046;28;20213;-59